createdAt,value
2022-11-05T00:01:54.863Z,14.15
2022-11-05T00:04:39.962Z,18.45
2022-11-05T00:07:30.711Z,15.23
2022-11-05T00:10:04.186Z,20.30
2022-11-05T00:12:49.392Z,13.70
2022-11-05T00:15:34.462Z,18.00
2022-11-05T00:18:01.014Z,14.75
2022-11-05T00:20:27.606Z,16.00
2022-11-05T00:23:20.507Z,19.33
2022-11-05T00:25:57.885Z,14.88
2022-11-05T00:28:25.363Z,13.93
2022-11-05T00:30:52.481Z,15.10
2022-11-05T00:33:19.166Z,17.30
2022-11-05T00:35:45.853Z,15.90
2022-11-05T00:38:12.565Z,16.70
2022-11-05T00:40:39.301Z,15.27
2022-11-05T00:43:24.442Z,21.25
2022-11-05T00:45:51.006Z,14.48
2022-11-05T00:48:36.232Z,14.38
2022-11-05T00:51:02.819Z,12.52
2022-11-05T00:53:29.421Z,14.23
2022-11-05T00:55:56.019Z,14.25
2022-11-05T00:58:23.342Z,19.63
2022-11-05T01:00:54.484Z,18.63
2022-11-05T01:03:32.667Z,16.35
2022-11-05T01:06:14.097Z,16.73
2022-11-05T01:08:42.363Z,17.15
2022-11-05T01:11:33.234Z,14.63
2022-11-05T01:14:02.018Z,17.35
2022-11-05T01:18:55.052Z,10.00
2022-11-05T01:21:21.633Z,12.48
2022-11-05T01:23:48.336Z,13.55
2022-11-05T01:26:15.044Z,14.63
2022-11-05T01:28:41.850Z,19.88
2022-11-05T01:31:08.449Z,12.98
2022-11-05T01:33:35.013Z,12.48
2022-11-05T01:36:01.599Z,13.23
2022-11-05T01:38:28.157Z,13.75
2022-11-05T01:40:54.817Z,16.15
2022-11-05T01:43:23.409Z,14.05
2022-11-05T01:45:52.257Z,15.00
2022-11-05T01:48:22.206Z,19.33
2022-11-05T01:50:59.734Z,14.00
2022-11-05T01:53:42.751Z,16.17
2022-11-05T01:56:13.152Z,13.88
2022-11-05T01:58:48.864Z,11.02
2022-11-05T02:01:16.162Z,9.45
2022-11-05T02:03:43.498Z,9.65
2022-11-05T02:06:11.175Z,11.93
2022-11-05T02:08:43.870Z,9.00
2022-11-05T02:11:13.331Z,9.57
2022-11-05T02:13:40.402Z,13.70
2022-11-05T02:16:12.958Z,10.68
2022-11-05T02:18:58.546Z,9.05
2022-11-05T02:21:49.912Z,9.40
2022-11-05T02:24:33.480Z,8.85
2022-11-05T02:27:11.898Z,8.05
2022-11-05T02:32:33.213Z,6.45
2022-11-05T02:35:11.894Z,10.05
2022-11-05T02:37:46.665Z,13.77
2022-11-05T02:40:34.513Z,13.57
2022-11-05T02:43:20.725Z,12.50
2022-11-05T02:45:58.894Z,10.95
2022-11-05T02:48:51.901Z,9.77
2022-11-05T02:51:33.368Z,11.02
2022-11-05T02:54:11.003Z,13.23
2022-11-05T02:56:41.168Z,11.75
2022-11-05T02:59:07.771Z,11.10
2022-11-05T03:01:35.989Z,10.88
2022-11-05T03:04:05.044Z,14.65
2022-11-05T03:06:49.934Z,10.48
2022-11-05T03:09:38.183Z,11.80
2022-11-05T03:15:16.585Z,9.70
2022-11-05T03:17:49.291Z,10.35
2022-11-05T03:20:39.999Z,12.18
2022-11-05T03:23:37.396Z,18.02
2022-11-05T03:26:25.498Z,15.40
2022-11-05T03:28:56.719Z,22.50
2022-11-05T03:31:23.498Z,20.02
2022-11-05T03:33:53.414Z,14.52
2022-11-05T03:36:27.345Z,13.55
2022-11-05T03:38:55.802Z,14.57
2022-11-05T03:43:51.723Z,10.63
2022-11-05T03:46:18.206Z,18.33
2022-11-05T03:48:48.160Z,20.27
2022-11-05T03:51:21.071Z,17.58
2022-11-05T03:53:50.646Z,11.88
2022-11-05T03:56:30.662Z,12.48
2022-11-05T03:58:59.151Z,10.25
2022-11-05T04:01:26.483Z,8.65
2022-11-05T04:03:53.315Z,10.60
2022-11-05T04:06:38.554Z,10.85
2022-11-05T04:09:23.550Z,9.07
2022-11-05T04:12:08.631Z,9.13
2022-11-05T04:14:35.241Z,12.48
2022-11-05T04:17:09.568Z,10.75
2022-11-05T04:19:57.345Z,12.00
2022-11-05T04:22:43.381Z,9.32
2022-11-05T04:25:10.667Z,10.90
2022-11-05T04:27:37.274Z,10.68
2022-11-05T04:30:19.626Z,12.13
2022-11-05T04:33:02.313Z,11.00
2022-11-05T04:35:31.409Z,12.43
2022-11-05T04:37:58.030Z,8.85
2022-11-05T04:40:24.823Z,12.60
2022-11-05T04:42:51.496Z,11.07
2022-11-05T04:45:18.020Z,15.45
2022-11-05T04:47:44.596Z,15.77
2022-11-05T04:50:12.231Z,16.33
2022-11-05T04:52:39.751Z,18.30
2022-11-05T04:55:07.037Z,14.43
2022-11-05T04:57:33.822Z,15.82
2022-11-05T05:00:00.427Z,17.35
2022-11-05T05:02:27.136Z,12.13
2022-11-05T05:04:53.826Z,12.32
2022-11-05T05:07:20.430Z,9.02
2022-11-05T05:09:47.150Z,9.98
2022-11-05T05:12:13.745Z,11.05
2022-11-05T05:14:40.318Z,10.35
2022-11-05T05:17:06.908Z,11.32
2022-11-05T05:19:53.450Z,11.63
2022-11-05T05:22:20.005Z,11.55
2022-11-05T05:24:52.426Z,12.82
2022-11-05T05:27:19.394Z,10.80
2022-11-05T05:29:45.945Z,9.27
2022-11-05T05:32:12.499Z,11.35
2022-11-05T05:34:39.090Z,12.70
2022-11-05T05:37:05.662Z,10.18
2022-11-05T05:39:32.314Z,6.32
2022-11-05T05:41:58.860Z,10.18
2022-11-05T05:44:25.431Z,7.85
2022-11-05T05:46:54.173Z,5.82
2022-11-05T05:49:20.847Z,6.10
2022-11-05T05:51:50.461Z,7.35
2022-11-05T05:54:17.337Z,6.93
2022-11-05T05:56:44.444Z,7.85
2022-11-05T05:59:11.555Z,8.02
2022-11-05T06:01:38.544Z,9.00
2022-11-05T06:04:05.307Z,11.18
2022-11-05T06:06:31.903Z,8.90
2022-11-05T06:08:58.483Z,9.30
2022-11-05T06:11:25.413Z,22.95
2022-11-05T06:13:51.998Z,13.70
2022-11-05T06:16:21.456Z,9.35
2022-11-05T06:18:48.897Z,13.45
2022-11-05T06:21:17.751Z,10.25
2022-11-05T06:23:45.699Z,10.35
2022-11-05T06:26:15.012Z,11.50
2022-11-05T06:28:42.260Z,10.70
2022-11-05T06:31:10.122Z,27.33
2022-11-05T06:33:36.814Z,60.05
2022-11-05T06:36:04.583Z,20.65
2022-11-05T06:38:36.202Z,15.77
2022-11-05T06:41:09.842Z,10.25
2022-11-05T06:43:37.049Z,12.40
2022-11-05T06:46:04.004Z,53.58
2022-11-05T06:48:30.658Z,35.90
2022-11-05T06:50:57.262Z,90.03
2022-11-05T06:53:23.878Z,31.02
2022-11-05T06:55:50.574Z,24.05
2022-11-05T06:58:17.192Z,15.07
2022-11-05T07:00:43.950Z,18.00
2022-11-05T07:03:12.257Z,26.42
2022-11-05T07:08:06.910Z,37.78
2022-11-05T07:10:33.539Z,64.13
2022-11-05T07:13:05.060Z,20.52
2022-11-05T07:15:34.315Z,17.98
2022-11-05T07:18:01.644Z,91.82
2022-11-05T07:20:33.480Z,23.00
2022-11-05T07:23:06.161Z,57.42
2022-11-05T07:25:33.367Z,19.50
2022-11-05T07:28:00.711Z,17.98
2022-11-05T07:30:27.835Z,17.80
2022-11-05T07:32:54.779Z,22.58
2022-11-05T07:35:21.573Z,19.55
2022-11-05T07:37:50.130Z,19.70
2022-11-05T07:45:12.674Z,23.60
2022-11-05T07:47:44.984Z,22.23
2022-11-05T07:50:11.553Z,21.52
2022-11-05T07:52:38.119Z,24.88
2022-11-05T07:55:05.086Z,38.53
2022-11-05T07:57:31.759Z,22.05
2022-11-05T07:59:58.283Z,35.80
2022-11-05T08:02:25.037Z,22.38
2022-11-05T08:04:51.785Z,21.05
2022-11-05T08:07:18.426Z,23.02
2022-11-05T08:09:44.995Z,21.48
2022-11-05T08:12:11.527Z,22.70
2022-11-05T08:14:38.083Z,28.55
2022-11-05T08:17:04.659Z,27.23
2022-11-05T08:19:31.204Z,27.52
2022-11-05T08:21:57.829Z,26.35
2022-11-05T08:24:24.373Z,20.48
2022-11-05T08:26:50.917Z,21.50
2022-11-05T08:29:17.549Z,21.58
2022-11-05T08:31:44.118Z,20.90
2022-11-05T08:34:10.697Z,21.58
2022-11-05T08:36:37.359Z,19.15
2022-11-05T08:39:04.313Z,18.85
2022-11-05T08:41:31.080Z,23.33
2022-11-05T08:43:57.675Z,21.55
2022-11-05T08:46:24.321Z,27.02
2022-11-05T08:48:50.957Z,22.98
2022-11-05T08:51:18.776Z,23.67
2022-11-05T08:53:45.365Z,28.90
2022-11-05T08:56:11.903Z,21.67
2022-11-05T08:58:38.542Z,26.90
2022-11-05T09:01:05.825Z,27.73
2022-11-05T09:03:32.638Z,29.55
2022-11-05T09:05:59.270Z,24.55
2022-11-05T09:08:25.961Z,23.23
2022-11-05T09:10:52.704Z,21.90
2022-11-05T09:13:20.427Z,22.33
2022-11-05T09:15:48.752Z,25.73
2022-11-05T09:18:16.127Z,27.67
2022-11-05T09:20:43.194Z,28.92
2022-11-05T09:23:11.236Z,26.95
2022-11-05T09:25:38.058Z,27.80
2022-11-05T09:28:19.173Z,25.02
2022-11-05T09:30:52.832Z,25.83
2022-11-05T09:33:21.364Z,25.88
2022-11-05T09:38:14.764Z,28.88
2022-11-05T09:40:51.451Z,28.90
2022-11-05T09:43:20.789Z,25.52
2022-11-05T09:45:50.243Z,28.10
2022-11-05T09:48:18.143Z,26.50
2022-11-05T09:50:46.010Z,27.25
2022-11-05T09:53:15.589Z,29.98
2022-11-05T09:55:44.697Z,30.33
2022-11-05T09:58:34.703Z,32.55
2022-11-05T10:01:03.607Z,30.48
2022-11-05T10:03:30.595Z,29.13
2022-11-05T10:06:09.699Z,33.03
2022-11-05T10:08:41.633Z,28.30
2022-11-05T10:11:18.089Z,27.38
2022-11-05T10:13:50.915Z,27.48
2022-11-05T10:16:27.846Z,28.65
2022-11-05T10:19:00.150Z,23.88
2022-11-05T10:21:51.400Z,28.65
2022-11-05T10:24:16.139Z,24.52
2022-11-05T10:26:43.588Z,34.28
2022-11-05T10:29:13.987Z,31.48
2022-11-05T10:31:40.575Z,32.45
2022-11-05T10:34:08.059Z,30.55
2022-11-05T10:36:36.738Z,26.75
2022-11-05T10:39:15.050Z,27.80
2022-11-05T10:42:06.032Z,27.95
2022-11-05T10:44:41.659Z,33.50
2022-11-05T10:47:41.018Z,29.35
2022-11-05T10:50:14.883Z,31.52
2022-11-05T10:53:07.012Z,29.08
2022-11-05T10:55:36.806Z,27.20
2022-11-05T10:58:15.568Z,21.83
2022-11-05T11:00:51.126Z,26.05
2022-11-05T11:03:33.108Z,26.15
2022-11-05T11:06:02.202Z,22.60
2022-11-05T11:08:30.491Z,25.50
2022-11-05T11:11:05.206Z,25.95
2022-11-05T11:13:58.650Z,26.08
2022-11-05T11:16:27.608Z,28.08
2022-11-05T11:18:56.410Z,27.63
2022-11-05T11:21:23.816Z,25.65
2022-11-05T11:24:20.486Z,27.38
2022-11-05T11:26:47.199Z,22.70
2022-11-05T11:29:27.961Z,22.27
2022-11-05T11:31:59.067Z,26.02
2022-11-05T11:34:29.950Z,23.20
2022-11-05T11:37:05.432Z,21.25
2022-11-05T11:39:32.555Z,18.27
2022-11-05T11:42:03.700Z,18.52
2022-11-05T11:44:33.370Z,19.67
2022-11-05T11:47:03.999Z,18.42
2022-11-05T11:49:31.419Z,16.90
2022-11-05T11:52:04.897Z,17.70
2022-11-05T11:54:33.296Z,18.00
2022-11-05T11:56:59.893Z,16.08
2022-11-05T11:59:47.209Z,13.48
2022-11-05T12:05:08.946Z,12.15
2022-11-05T12:07:53.064Z,10.45
2022-11-05T12:10:42.773Z,17.65
2022-11-05T12:13:12.736Z,9.43
2022-11-05T12:15:49.933Z,11.52
2022-11-05T12:18:38.758Z,13.85
2022-11-05T12:21:50.922Z,13.38
2022-11-05T12:26:55.415Z,9.82
2022-11-05T12:29:40.177Z,8.98
2022-11-05T12:32:21.947Z,14.38
2022-11-05T12:35:13.071Z,9.40
2022-11-05T12:37:45.582Z,10.48
2022-11-05T12:40:27.695Z,13.45
2022-11-05T12:43:00.259Z,11.50
2022-11-05T12:45:50.141Z,9.68
2022-11-05T12:48:16.621Z,10.30
2022-11-05T12:50:52.308Z,11.13
2022-11-05T12:53:52.078Z,13.70
2022-11-05T12:56:31.101Z,11.07
2022-11-05T12:59:06.208Z,10.75
2022-11-05T13:01:40.159Z,10.55
2022-11-05T13:04:46.926Z,10.50
2022-11-05T13:07:17.102Z,10.05
2022-11-05T13:09:52.974Z,9.73
2022-11-05T13:12:22.427Z,11.10
2022-11-05T13:14:53.592Z,10.38
2022-11-05T13:17:31.016Z,9.93
2022-11-05T13:20:17.155Z,11.13
2022-11-05T13:22:48.135Z,15.20
2022-11-05T13:25:21.928Z,17.45
2022-11-05T13:28:02.909Z,9.85
2022-11-05T13:30:39.575Z,9.55
2022-11-05T13:33:15.105Z,10.35
2022-11-05T13:35:44.542Z,10.48
2022-11-05T13:38:41.696Z,12.40
2022-11-05T13:41:14.666Z,9.63
2022-11-05T13:44:05.862Z,9.20
2022-11-05T13:47:13.644Z,10.27
2022-11-05T13:49:52.383Z,13.25
2022-11-05T13:52:40.274Z,11.00
2022-11-05T13:55:26.246Z,7.53
2022-11-05T13:58:16.990Z,11.75
2022-11-05T14:00:55.921Z,7.68
2022-11-05T14:03:22.726Z,8.70
2022-11-05T14:05:54.273Z,15.27
2022-11-05T14:08:25.411Z,9.27
2022-11-05T14:10:59.442Z,7.45
2022-11-05T14:13:38.561Z,7.18
2022-11-05T14:16:10.821Z,14.48
2022-11-05T14:18:41.968Z,10.02
2022-11-05T14:21:26.906Z,8.13
2022-11-05T14:23:58.872Z,6.38
2022-11-05T14:26:30.307Z,10.23
2022-11-05T14:29:02.761Z,6.43
2022-11-05T14:32:07.316Z,6.70
2022-11-05T14:35:06.657Z,7.55
2022-11-05T14:37:40.278Z,8.45
2022-11-05T14:40:43.934Z,13.52
2022-11-05T14:43:23.514Z,7.68
2022-11-05T14:46:01.085Z,8.55
2022-11-05T14:48:35.558Z,6.13
2022-11-05T14:51:02.451Z,5.30
2022-11-05T14:53:35.370Z,10.77
2022-11-05T14:56:08.970Z,8.07
2022-11-05T14:58:38.171Z,8.70
2022-11-05T15:01:07.058Z,9.32
2022-11-05T15:03:41.103Z,7.93
2022-11-05T15:06:27.225Z,7.20
2022-11-05T15:09:04.563Z,11.85
2022-11-05T15:11:37.039Z,6.53
2022-11-05T15:14:16.636Z,5.43
2022-11-05T15:16:45.299Z,6.90
2022-11-05T15:19:24.003Z,9.63
2022-11-05T15:21:51.553Z,5.47
2022-11-05T15:24:18.728Z,9.55
2022-11-05T15:27:27.874Z,7.57
2022-11-05T15:29:55.359Z,9.00
2022-11-05T15:32:26.307Z,9.55
2022-11-05T15:34:55.373Z,13.48
2022-11-05T15:37:25.420Z,8.35
2022-11-05T15:39:55.362Z,9.77
2022-11-05T15:42:26.521Z,8.50
2022-11-05T15:44:55.866Z,8.75
2022-11-05T15:47:24.273Z,9.77
2022-11-05T15:50:01.446Z,9.68
2022-11-05T15:52:34.773Z,7.32
2022-11-05T15:55:08.882Z,9.95
2022-11-05T15:57:39.859Z,6.47
2022-11-05T16:00:14.305Z,9.45
2022-11-05T16:02:41.195Z,6.47
2022-11-05T16:05:13.055Z,8.27
2022-11-05T16:07:46.495Z,10.23
2022-11-05T16:10:24.775Z,8.60
2022-11-05T16:12:51.500Z,8.82
2022-11-05T16:15:29.320Z,8.82
2022-11-05T16:17:57.928Z,8.93
2022-11-05T16:22:59.008Z,8.82
2022-11-05T16:25:31.141Z,8.05
2022-11-05T16:27:59.062Z,6.80
2022-11-05T16:30:26.394Z,8.50
2022-11-05T16:32:53.330Z,11.00
2022-11-05T16:35:23.071Z,7.68
2022-11-05T16:37:52.218Z,11.38
2022-11-05T16:40:24.338Z,8.82
2022-11-05T16:42:52.501Z,8.23
2022-11-05T16:45:21.724Z,11.32
2022-11-05T16:47:48.801Z,9.93
2022-11-05T16:50:24.979Z,16.17
2022-11-05T16:52:51.893Z,10.52
2022-11-05T16:55:19.039Z,10.75
2022-11-05T16:57:48.420Z,11.48
2022-11-05T17:00:17.209Z,9.57
2022-11-05T17:02:44.164Z,9.55
2022-11-05T17:05:37.165Z,17.42
2022-11-05T17:08:03.718Z,14.13
2022-11-05T17:10:30.780Z,8.65
2022-11-05T17:12:57.342Z,8.48
2022-11-05T17:15:29.587Z,10.82
2022-11-05T17:17:56.966Z,10.25
2022-11-05T17:20:28.026Z,10.85
2022-11-05T17:22:55.554Z,11.35
2022-11-05T17:25:22.734Z,8.98
2022-11-05T17:27:49.550Z,9.32
2022-11-05T17:30:16.839Z,9.45
2022-11-05T17:32:43.494Z,10.35
2022-11-05T17:35:10.978Z,11.32
2022-11-05T17:37:37.662Z,10.13
2022-11-05T17:40:05.908Z,14.40
2022-11-05T17:42:32.774Z,12.88
2022-11-05T17:44:59.383Z,12.80
2022-11-05T17:47:27.051Z,10.65
2022-11-05T17:49:53.654Z,12.23
2022-11-05T17:52:20.251Z,11.85
2022-11-05T17:54:46.815Z,9.40
2022-11-05T17:57:13.403Z,9.15
2022-11-05T17:59:39.941Z,9.65
2022-11-05T18:02:06.734Z,7.70
2022-11-05T18:04:33.833Z,11.27
2022-11-05T18:07:00.378Z,10.70
2022-11-05T18:09:26.927Z,7.47
2022-11-05T18:11:53.507Z,8.23
2022-11-05T18:14:23.853Z,10.38
2022-11-05T18:16:51.419Z,9.10
2022-11-05T18:19:18.230Z,14.30
2022-11-05T18:21:44.774Z,9.38
2022-11-05T18:24:12.234Z,8.65
2022-11-05T18:26:38.911Z,8.10
2022-11-05T18:29:06.374Z,9.82
2022-11-05T18:31:32.954Z,13.88
2022-11-05T18:34:00.092Z,14.05
2022-11-05T18:36:28.279Z,11.00
2022-11-05T18:38:59.750Z,8.88
2022-11-05T18:41:26.485Z,6.88
2022-11-05T18:43:53.253Z,9.52
2022-11-05T18:46:51.227Z,8.80
2022-11-05T18:49:07.325Z,9.00
2022-11-05T18:51:33.862Z,6.20
2022-11-05T18:54:00.654Z,5.78
2022-11-05T18:56:27.181Z,6.80
2022-11-05T18:59:14.718Z,6.32
2022-11-05T19:01:41.030Z,6.32
2022-11-05T19:04:07.762Z,10.32
2022-11-05T19:06:34.751Z,10.05
2022-11-05T19:09:01.482Z,5.25
2022-11-05T19:11:28.195Z,8.38
2022-11-05T19:13:54.814Z,10.63
2022-11-05T19:16:23.995Z,6.50
2022-11-05T19:18:51.210Z,7.32
2022-11-05T19:21:20.747Z,7.38
2022-11-05T19:23:47.645Z,11.10
2022-11-05T19:26:16.799Z,7.15
2022-11-05T19:28:44.090Z,8.13
2022-11-05T19:31:14.186Z,5.28
2022-11-05T19:33:45.508Z,5.10
2022-11-05T19:36:13.298Z,9.00
2022-11-05T19:38:40.310Z,7.68
2022-11-05T19:41:14.140Z,7.50
2022-11-05T19:43:41.770Z,7.45
2022-11-05T19:46:10.662Z,5.67
2022-11-05T19:48:37.436Z,5.65
2022-11-05T19:51:05.662Z,6.05
2022-11-05T19:53:34.414Z,6.32
2022-11-05T19:56:14.595Z,5.35
2022-11-05T19:58:41.351Z,8.48
2022-11-05T20:01:08.839Z,8.63
2022-11-05T20:03:35.591Z,8.55
2022-11-05T20:06:07.470Z,5.47
2022-11-05T20:08:43.420Z,8.77
2022-11-05T20:11:20.791Z,7.80
2022-11-05T20:13:47.370Z,8.25
2022-11-05T20:16:22.259Z,8.88
2022-11-05T20:18:49.419Z,9.18
2022-11-05T20:21:16.122Z,8.25
2022-11-05T20:23:42.952Z,6.70
2022-11-05T20:26:10.436Z,8.40
2022-11-05T20:28:38.162Z,8.80
2022-11-05T20:31:12.521Z,5.55
2022-11-05T20:33:40.763Z,7.03
2022-11-05T20:36:10.405Z,6.25
2022-11-05T20:38:37.009Z,5.75
2022-11-05T20:41:11.926Z,6.93
2022-11-05T20:43:41.002Z,7.13
2022-11-05T20:46:08.615Z,9.45
2022-11-05T20:48:35.397Z,10.03
2022-11-05T20:51:06.666Z,7.85
2022-11-05T20:53:33.613Z,5.47
2022-11-05T20:56:03.743Z,7.68
2022-11-05T20:58:34.399Z,7.28
2022-11-05T21:01:00.954Z,7.88
2022-11-05T21:03:27.549Z,7.93
2022-11-05T21:05:59.699Z,13.45
2022-11-05T21:08:27.454Z,7.43
2022-11-05T21:10:54.420Z,7.38
2022-11-05T21:13:21.015Z,9.82
2022-11-05T21:15:50.248Z,6.90
2022-11-05T21:18:18.107Z,6.43
2022-11-05T21:20:45.370Z,5.72
2022-11-05T21:23:12.239Z,8.02
2022-11-05T21:25:39.985Z,6.20
2022-11-05T21:28:07.504Z,5.00
2022-11-05T21:30:36.336Z,5.57
2022-11-05T21:33:05.212Z,7.57
2022-11-05T21:35:32.330Z,7.18
2022-11-05T21:37:59.214Z,7.13
2022-11-05T21:40:26.039Z,7.53
2022-11-05T21:42:52.790Z,8.10
2022-11-05T21:45:19.350Z,7.28
2022-11-05T21:47:45.996Z,6.25
2022-11-05T21:50:12.654Z,7.00
2022-11-05T21:52:57.835Z,6.28
2022-11-05T21:55:42.633Z,7.00
2022-11-05T21:58:38.561Z,7.15
2022-11-05T22:01:05.207Z,7.72
2022-11-05T22:03:31.751Z,9.63
2022-11-05T22:05:58.343Z,7.80
2022-11-05T22:08:25.119Z,6.47
2022-11-05T22:10:51.677Z,12.70
2022-11-05T22:13:18.270Z,5.85
2022-11-05T22:15:54.511Z,6.43
2022-11-05T22:18:21.058Z,7.75
2022-11-05T22:20:47.612Z,9.82
2022-11-05T22:23:14.164Z,8.65
2022-11-05T22:25:40.801Z,7.65
2022-11-05T22:28:07.452Z,6.68
2022-11-05T22:30:34.775Z,9.77
2022-11-05T22:33:01.722Z,7.55
2022-11-05T22:35:28.765Z,6.00
2022-11-05T22:37:55.302Z,6.38
2022-11-05T22:40:23.982Z,8.07
2022-11-05T22:42:50.969Z,7.72
2022-11-05T22:45:17.565Z,10.63
2022-11-05T22:47:44.105Z,8.93
2022-11-05T22:50:10.721Z,6.53
2022-11-05T22:52:37.307Z,8.70
2022-11-05T22:55:06.232Z,7.05
2022-11-05T22:57:32.875Z,8.77
2022-11-05T22:59:59.446Z,11.30
2022-11-05T23:02:26.059Z,9.05
2022-11-05T23:04:52.751Z,13.07
2022-11-05T23:07:37.827Z,7.55
2022-11-05T23:10:23.456Z,5.82
2022-11-05T23:12:50.072Z,6.95
2022-11-05T23:15:35.258Z,12.20
2022-11-05T23:18:20.107Z,7.95
2022-11-05T23:21:05.046Z,8.57
2022-11-05T23:23:50.008Z,8.93
2022-11-05T23:26:34.851Z,10.77
2022-11-05T23:29:01.383Z,9.88
2022-11-05T23:31:46.521Z,13.95
2022-11-05T23:34:13.074Z,7.65
2022-11-05T23:36:58.322Z,8.38
2022-11-05T23:39:24.887Z,13.63
2022-11-05T23:42:09.963Z,11.52
2022-11-05T23:44:55.052Z,10.75
2022-11-05T23:47:40.371Z,8.68
2022-11-05T23:50:07.076Z,10.32
2022-11-05T23:52:33.767Z,7.97
2022-11-05T23:55:00.342Z,8.40
2022-11-05T23:57:26.971Z,10.10
2022-11-05T23:59:53.574Z,8.98
